Terminal Aerodrome Forecast
Issued by NWS

Home | Current Version | Previous Version | Text Only | Print | Product List | Glossary On
Versions: 1 2 3 4 5 6 7 8 9 10 11 12 13 14 15 16 17 18 19 20 21
000
FTUS42 KRAH 221313 AAA
TAFRWI
TAF AMD
KRWI 221313Z 2213/2312 05003KT 4SM BR SCT250
      TEMPO 2213/2214 2SM BR
     FM221400 10004KT P6SM FEW025 BKN250
     FM221600 12004KT P6SM SCT035 SCT250
     FM231000 10003KT 4SM BR SCT004 SCT025 BKN040=

USA.gov is the U.S. government's official web portal to all federal, state and local government web resources and services.